sensor_id;sensor_type;location;lat;lon;timestamp;P1;durP1;ratioP1;P2;durP2;ratioP2
38787;SDS011;24536;45.488;12.238;2023-06-26T00:01:23;3.80;;;2.65;;
38787;SDS011;24536;45.488;12.238;2023-06-26T00:03:48;3.83;;;3.00;;
38787;SDS011;24536;45.488;12.238;2023-06-26T00:06:14;5.00;;;3.38;;
38787;SDS011;24536;45.488;12.238;2023-06-26T00:08:40;4.78;;;2.90;;
38787;SDS011;24536;45.488;12.238;2023-06-26T00:11:05;4.43;;;3.17;;
38787;SDS011;24536;45.488;12.238;2023-06-26T00:13:31;7.70;;;3.50;;
38787;SDS011;24536;45.488;12.238;2023-06-26T00:15:57;4.38;;;3.35;;
38787;SDS011;24536;45.488;12.238;2023-06-26T00:18:22;3.88;;;3.20;;
38787;SDS011;24536;45.488;12.238;2023-06-26T00:20:48;6.53;;;3.72;;
38787;SDS011;24536;45.488;12.238;2023-06-26T00:23:16;4.63;;;3.20;;
38787;SDS011;24536;45.488;12.238;2023-06-26T00:25:42;4.25;;;3.05;;
38787;SDS011;24536;45.488;12.238;2023-06-26T00:28:08;8.57;;;3.90;;
38787;SDS011;24536;45.488;12.238;2023-06-26T00:30:34;8.80;;;4.10;;
38787;SDS011;24536;45.488;12.238;2023-06-26T00:33:00;4.93;;;3.50;;
38787;SDS011;24536;45.488;12.238;2023-06-26T00:35:26;4.20;;;3.20;;
38787;SDS011;24536;45.488;12.238;2023-06-26T00:37:52;5.15;;;3.25;;
38787;SDS011;24536;45.488;12.238;2023-06-26T00:40:17;6.00;;;3.47;;
38787;SDS011;24536;45.488;12.238;2023-06-26T00:42:43;5.20;;;3.88;;
38787;SDS011;24536;45.488;12.238;2023-06-26T00:45:09;3.75;;;3.10;;
38787;SDS011;24536;45.488;12.238;2023-06-26T00:47:34;6.97;;;3.60;;
38787;SDS011;24536;45.488;12.238;2023-06-26T00:50:01;5.78;;;3.40;;
38787;SDS011;24536;45.488;12.238;2023-06-26T00:52:27;5.88;;;3.70;;
38787;SDS011;24536;45.488;12.238;2023-06-26T00:54:53;6.47;;;3.70;;
38787;SDS011;24536;45.488;12.238;2023-06-26T00:57:19;4.40;;;3.58;;
38787;SDS011;24536;45.488;12.238;2023-06-26T00:59:44;3.17;;;2.88;;
38787;SDS011;24536;45.488;12.238;2023-06-26T01:02:10;6.20;;;3.72;;
38787;SDS011;24536;45.488;12.238;2023-06-26T01:04:36;5.15;;;3.75;;
38787;SDS011;24536;45.488;12.238;2023-06-26T01:07:02;4.55;;;3.60;;
38787;SDS011;24536;45.488;12.238;2023-06-26T01:09:29;6.00;;;3.60;;
38787;SDS011;24536;45.488;12.238;2023-06-26T01:11:56;5.43;;;3.75;;
38787;SDS011;24536;45.488;12.238;2023-06-26T01:14:21;4.63;;;2.85;;
38787;SDS011;24536;45.488;12.238;2023-06-26T01:16:47;5.32;;;3.42;;
38787;SDS011;24536;45.488;12.238;2023-06-26T01:19:24;6.50;;;3.58;;
38787;SDS011;24536;45.488;12.238;2023-06-26T01:24:39;5.07;;;3.25;;
38787;SDS011;24536;45.488;12.238;2023-06-26T01:27:13;4.60;;;3.70;;
38787;SDS011;24536;45.488;12.238;2023-06-26T01:29:39;7.28;;;3.55;;
38787;SDS011;24536;45.488;12.238;2023-06-26T01:32:07;5.72;;;3.50;;
38787;SDS011;24536;45.488;12.238;2023-06-26T01:34:33;4.07;;;3.28;;
38787;SDS011;24536;45.488;12.238;2023-06-26T01:36:58;6.47;;;3.70;;
38787;SDS011;24536;45.488;12.238;2023-06-26T01:39:24;6.03;;;3.38;;
38787;SDS011;24536;45.488;12.238;2023-06-26T01:41:50;4.90;;;3.53;;
38787;SDS011;24536;45.488;12.238;2023-06-26T01:47:02;5.50;;;3.60;;
38787;SDS011;24536;45.488;12.238;2023-06-26T01:54:53;5.15;;;3.40;;
38787;SDS011;24536;45.488;12.238;2023-06-26T01:57:42;4.90;;;3.78;;
38787;SDS011;24536;45.488;12.238;2023-06-26T02:00:09;6.32;;;3.72;;
38787;SDS011;24536;45.488;12.238;2023-06-26T02:02:36;4.97;;;3.63;;
38787;SDS011;24536;45.488;12.238;2023-06-26T02:05:02;5.55;;;3.38;;
38787;SDS011;24536;45.488;12.238;2023-06-26T02:07:28;5.40;;;3.80;;
38787;SDS011;24536;45.488;12.238;2023-06-26T02:09:53;4.82;;;3.30;;
38787;SDS011;24536;45.488;12.238;2023-06-26T02:12:19;6.57;;;3.67;;
38787;SDS011;24536;45.488;12.238;2023-06-26T02:14:45;6.20;;;4.00;;
38787;SDS011;24536;45.488;12.238;2023-06-26T02:17:10;5.57;;;3.92;;
38787;SDS011;24536;45.488;12.238;2023-06-26T02:19:36;4.28;;;3.47;;
38787;SDS011;24536;45.488;12.238;2023-06-26T02:22:10;5.28;;;3.50;;
38787;SDS011;24536;45.488;12.238;2023-06-26T02:24:36;7.72;;;3.20;;
38787;SDS011;24536;45.488;12.238;2023-06-26T02:27:02;5.45;;;3.80;;
38787;SDS011;24536;45.488;12.238;2023-06-26T02:29:28;8.85;;;3.50;;
38787;SDS011;24536;45.488;12.238;2023-06-26T02:31:53;5.28;;;3.28;;
38787;SDS011;24536;45.488;12.238;2023-06-26T02:34:19;4.78;;;3.47;;
38787;SDS011;24536;45.488;12.238;2023-06-26T02:36:45;4.10;;;3.50;;
38787;SDS011;24536;45.488;12.238;2023-06-26T02:39:10;5.85;;;3.55;;
38787;SDS011;24536;45.488;12.238;2023-06-26T02:41:36;6.22;;;3.35;;
38787;SDS011;24536;45.488;12.238;2023-06-26T02:44:02;5.95;;;3.53;;
38787;SDS011;24536;45.488;12.238;2023-06-26T02:46:28;5.15;;;4.10;;
38787;SDS011;24536;45.488;12.238;2023-06-26T02:48:53;4.93;;;3.65;;
38787;SDS011;24536;45.488;12.238;2023-06-26T02:51:19;7.38;;;4.25;;
38787;SDS011;24536;45.488;12.238;2023-06-26T02:53:44;6.00;;;3.83;;
38787;SDS011;24536;45.488;12.238;2023-06-26T02:56:10;6.43;;;3.95;;
38787;SDS011;24536;45.488;12.238;2023-06-26T02:58:36;6.55;;;4.20;;
38787;SDS011;24536;45.488;12.238;2023-06-26T03:01:02;4.03;;;3.47;;
38787;SDS011;24536;45.488;12.238;2023-06-26T03:03:27;7.28;;;3.70;;
38787;SDS011;24536;45.488;12.238;2023-06-26T03:05:53;4.78;;;3.50;;
38787;SDS011;24536;45.488;12.238;2023-06-26T03:08:19;8.57;;;3.70;;
38787;SDS011;24536;45.488;12.238;2023-06-26T03:10:44;7.05;;;3.80;;
38787;SDS011;24536;45.488;12.238;2023-06-26T03:13:10;5.78;;;3.97;;
38787;SDS011;24536;45.488;12.238;2023-06-26T03:15:36;6.75;;;3.53;;
38787;SDS011;24536;45.488;12.238;2023-06-26T03:18:01;5.65;;;3.70;;
38787;SDS011;24536;45.488;12.238;2023-06-26T03:20:27;4.47;;;3.45;;
38787;SDS011;24536;45.488;12.238;2023-06-26T03:22:52;4.57;;;3.80;;
38787;SDS011;24536;45.488;12.238;2023-06-26T03:25:18;5.55;;;3.58;;
38787;SDS011;24536;45.488;12.238;2023-06-26T03:27:44;4.70;;;3.00;;
38787;SDS011;24536;45.488;12.238;2023-06-26T03:30:10;5.53;;;3.80;;
38787;SDS011;24536;45.488;12.238;2023-06-26T03:32:36;5.03;;;3.40;;
38787;SDS011;24536;45.488;12.238;2023-06-26T03:35:02;7.65;;;4.50;;
38787;SDS011;24536;45.488;12.238;2023-06-26T03:37:28;68.25;;;6.38;;
38787;SDS011;24536;45.488;12.238;2023-06-26T03:39:54;6.55;;;4.00;;
38787;SDS011;24536;45.488;12.238;2023-06-26T03:42:19;5.78;;;3.97;;
38787;SDS011;24536;45.488;12.238;2023-06-26T03:44:45;4.97;;;4.32;;
38787;SDS011;24536;45.488;12.238;2023-06-26T03:47:11;6.32;;;3.90;;
38787;SDS011;24536;45.488;12.238;2023-06-26T03:49:36;6.82;;;3.92;;
38787;SDS011;24536;45.488;12.238;2023-06-26T03:52:02;4.88;;;3.85;;
38787;SDS011;24536;45.488;12.238;2023-06-26T03:54:28;5.00;;;3.92;;
38787;SDS011;24536;45.488;12.238;2023-06-26T03:56:53;4.95;;;3.70;;
38787;SDS011;24536;45.488;12.238;2023-06-26T03:59:20;5.00;;;3.90;;
38787;SDS011;24536;45.488;12.238;2023-06-26T04:01:45;7.35;;;3.58;;
38787;SDS011;24536;45.488;12.238;2023-06-26T04:04:11;5.05;;;3.70;;
38787;SDS011;24536;45.488;12.238;2023-06-26T04:06:37;6.05;;;3.72;;
38787;SDS011;24536;45.488;12.238;2023-06-26T04:09:02;5.15;;;4.10;;
38787;SDS011;24536;45.488;12.238;2023-06-26T04:11:29;4.40;;;3.50;;
38787;SDS011;24536;45.488;12.238;2023-06-26T04:13:55;6.30;;;4.03;;
38787;SDS011;24536;45.488;12.238;2023-06-26T04:16:21;7.22;;;4.75;;
38787;SDS011;24536;45.488;12.238;2023-06-26T04:18:49;5.75;;;4.63;;
38787;SDS011;24536;45.488;12.238;2023-06-26T04:21:15;5.70;;;4.65;;
38787;SDS011;24536;45.488;12.238;2023-06-26T04:23:42;5.18;;;4.07;;
38787;SDS011;24536;45.488;12.238;2023-06-26T04:26:07;7.07;;;4.95;;
38787;SDS011;24536;45.488;12.238;2023-06-26T04:28:34;5.90;;;4.43;;
38787;SDS011;24536;45.488;12.238;2023-06-26T04:31:03;7.22;;;4.53;;
38787;SDS011;24536;45.488;12.238;2023-06-26T04:33:29;5.68;;;3.83;;
38787;SDS011;24536;45.488;12.238;2023-06-26T04:35:55;5.97;;;4.43;;
38787;SDS011;24536;45.488;12.238;2023-06-26T04:38:20;5.43;;;4.30;;
38787;SDS011;24536;45.488;12.238;2023-06-26T04:40:47;8.80;;;3.97;;
38787;SDS011;24536;45.488;12.238;2023-06-26T04:43:13;6.68;;;4.93;;
38787;SDS011;24536;45.488;12.238;2023-06-26T04:45:38;6.45;;;4.90;;
38787;SDS011;24536;45.488;12.238;2023-06-26T04:48:04;6.60;;;4.57;;
38787;SDS011;24536;45.488;12.238;2023-06-26T04:50:31;5.63;;;3.97;;
38787;SDS011;24536;45.488;12.238;2023-06-26T04:52:58;4.97;;;4.47;;
38787;SDS011;24536;45.488;12.238;2023-06-26T04:55:24;5.45;;;4.53;;
38787;SDS011;24536;45.488;12.238;2023-06-26T04:57:51;5.85;;;4.00;;
38787;SDS011;24536;45.488;12.238;2023-06-26T05:00:17;5.97;;;4.90;;
38787;SDS011;24536;45.488;12.238;2023-06-26T05:02:43;6.70;;;4.28;;
38787;SDS011;24536;45.488;12.238;2023-06-26T05:05:09;6.68;;;4.60;;
38787;SDS011;24536;45.488;12.238;2023-06-26T05:07:35;5.75;;;4.10;;
38787;SDS011;24536;45.488;12.238;2023-06-26T05:10:01;6.40;;;4.60;;
38787;SDS011;24536;45.488;12.238;2023-06-26T05:12:27;7.63;;;4.32;;
38787;SDS011;24536;45.488;12.238;2023-06-26T05:14:52;6.63;;;5.00;;
38787;SDS011;24536;45.488;12.238;2023-06-26T05:17:18;7.35;;;4.38;;
38787;SDS011;24536;45.488;12.238;2023-06-26T05:19:44;6.30;;;4.80;;
38787;SDS011;24536;45.488;12.238;2023-06-26T05:22:10;6.68;;;4.45;;
38787;SDS011;24536;45.488;12.238;2023-06-26T05:24:37;4.82;;;4.07;;
38787;SDS011;24536;45.488;12.238;2023-06-26T05:27:04;6.32;;;4.88;;
38787;SDS011;24536;45.488;12.238;2023-06-26T05:29:31;5.05;;;4.15;;
38787;SDS011;24536;45.488;12.238;2023-06-26T05:31:57;7.55;;;4.70;;
38787;SDS011;24536;45.488;12.238;2023-06-26T05:34:23;7.60;;;4.70;;
38787;SDS011;24536;45.488;12.238;2023-06-26T05:36:50;7.28;;;4.25;;
38787;SDS011;24536;45.488;12.238;2023-06-26T05:39:17;5.75;;;4.35;;
38787;SDS011;24536;45.488;12.238;2023-06-26T05:41:46;6.32;;;4.75;;
38787;SDS011;24536;45.488;12.238;2023-06-26T05:44:12;6.15;;;4.57;;
38787;SDS011;24536;45.488;12.238;2023-06-26T05:46:38;5.10;;;4.47;;
38787;SDS011;24536;45.488;12.238;2023-06-26T05:49:03;5.07;;;4.18;;
38787;SDS011;24536;45.488;12.238;2023-06-26T05:51:29;5.20;;;4.32;;
38787;SDS011;24536;45.488;12.238;2023-06-26T05:53:55;6.90;;;4.15;;
38787;SDS011;24536;45.488;12.238;2023-06-26T05:56:21;6.10;;;4.53;;
38787;SDS011;24536;45.488;12.238;2023-06-26T05:58:47;6.65;;;4.38;;
38787;SDS011;24536;45.488;12.238;2023-06-26T06:01:13;4.72;;;4.20;;
38787;SDS011;24536;45.488;12.238;2023-06-26T06:03:39;5.93;;;4.40;;
38787;SDS011;24536;45.488;12.238;2023-06-26T06:06:05;5.88;;;4.40;;
38787;SDS011;24536;45.488;12.238;2023-06-26T06:08:31;4.72;;;4.00;;
38787;SDS011;24536;45.488;12.238;2023-06-26T06:10:57;5.30;;;4.07;;
38787;SDS011;24536;45.488;12.238;2023-06-26T06:13:24;5.35;;;4.13;;
38787;SDS011;24536;45.488;12.238;2023-06-26T06:15:50;5.85;;;4.53;;
38787;SDS011;24536;45.488;12.238;2023-06-26T06:18:16;5.68;;;3.90;;
38787;SDS011;24536;45.488;12.238;2023-06-26T06:20:41;6.47;;;4.00;;
38787;SDS011;24536;45.488;12.238;2023-06-26T06:23:07;4.15;;;3.67;;
38787;SDS011;24536;45.488;12.238;2023-06-26T06:25:33;5.75;;;4.20;;
38787;SDS011;24536;45.488;12.238;2023-06-26T06:27:59;4.93;;;3.50;;
38787;SDS011;24536;45.488;12.238;2023-06-26T06:30:24;4.63;;;3.80;;
38787;SDS011;24536;45.488;12.238;2023-06-26T06:32:50;6.25;;;3.17;;
38787;SDS011;24536;45.488;12.238;2023-06-26T06:35:18;5.18;;;4.25;;
38787;SDS011;24536;45.488;12.238;2023-06-26T06:37:44;4.93;;;3.97;;
38787;SDS011;24536;45.488;12.238;2023-06-26T06:40:10;7.80;;;3.80;;
38787;SDS011;24536;45.488;12.238;2023-06-26T06:42:36;9.63;;;4.00;;
38787;SDS011;24536;45.488;12.238;2023-06-26T06:45:04;4.82;;;3.47;;
38787;SDS011;24536;45.488;12.238;2023-06-26T06:47:31;4.32;;;3.67;;
38787;SDS011;24536;45.488;12.238;2023-06-26T06:49:57;6.93;;;3.47;;
38787;SDS011;24536;45.488;12.238;2023-06-26T06:52:23;3.90;;;3.50;;
38787;SDS011;24536;45.488;12.238;2023-06-26T06:54:56;11.00;;;3.50;;
38787;SDS011;24536;45.488;12.238;2023-06-26T06:57:30;5.07;;;4.00;;
38787;SDS011;24536;45.488;12.238;2023-06-26T07:00:01;4.47;;;3.85;;
38787;SDS011;24536;45.488;12.238;2023-06-26T07:02:29;5.13;;;3.60;;
38787;SDS011;24536;45.488;12.238;2023-06-26T07:04:55;4.10;;;3.30;;
38787;SDS011;24536;45.488;12.238;2023-06-26T07:07:21;6.30;;;3.53;;
38787;SDS011;24536;45.488;12.238;2023-06-26T07:09:46;3.90;;;3.22;;
38787;SDS011;24536;45.488;12.238;2023-06-26T07:12:12;3.72;;;3.28;;
38787;SDS011;24536;45.488;12.238;2023-06-26T07:14:38;4.05;;;3.50;;
38787;SDS011;24536;45.488;12.238;2023-06-26T07:17:04;3.50;;;2.90;;
38787;SDS011;24536;45.488;12.238;2023-06-26T07:19:30;4.70;;;3.22;;
38787;SDS011;24536;45.488;12.238;2023-06-26T07:21:55;4.97;;;3.40;;
38787;SDS011;24536;45.488;12.238;2023-06-26T07:24:21;13.70;;;3.92;;
38787;SDS011;24536;45.488;12.238;2023-06-26T07:26:47;3.28;;;2.90;;
38787;SDS011;24536;45.488;12.238;2023-06-26T07:29:12;3.67;;;2.70;;
38787;SDS011;24536;45.488;12.238;2023-06-26T07:31:38;4.18;;;3.05;;
38787;SDS011;24536;45.488;12.238;2023-06-26T07:34:03;4.75;;;3.05;;
38787;SDS011;24536;45.488;12.238;2023-06-26T07:36:29;3.88;;;3.20;;
38787;SDS011;24536;45.488;12.238;2023-06-26T07:38:55;3.60;;;2.75;;
38787;SDS011;24536;45.488;12.238;2023-06-26T07:41:20;3.60;;;2.92;;
38787;SDS011;24536;45.488;12.238;2023-06-26T07:43:46;3.15;;;2.83;;
38787;SDS011;24536;45.488;12.238;2023-06-26T07:46:12;4.00;;;3.03;;
38787;SDS011;24536;45.488;12.238;2023-06-26T07:48:37;4.70;;;3.55;;
38787;SDS011;24536;45.488;12.238;2023-06-26T07:51:03;6.25;;;3.80;;
38787;SDS011;24536;45.488;12.238;2023-06-26T07:53:29;3.65;;;3.03;;
38787;SDS011;24536;45.488;12.238;2023-06-26T07:55:54;4.13;;;2.67;;
38787;SDS011;24536;45.488;12.238;2023-06-26T07:58:20;3.95;;;3.25;;
38787;SDS011;24536;45.488;12.238;2023-06-26T08:00:46;3.75;;;3.30;;
38787;SDS011;24536;45.488;12.238;2023-06-26T08:03:11;4.32;;;2.90;;
38787;SDS011;24536;45.488;12.238;2023-06-26T08:05:38;5.00;;;3.10;;
38787;SDS011;24536;45.488;12.238;2023-06-26T08:08:03;3.60;;;2.85;;
38787;SDS011;24536;45.488;12.238;2023-06-26T08:10:29;4.72;;;2.85;;
38787;SDS011;24536;45.488;12.238;2023-06-26T08:12:55;3.42;;;3.13;;
38787;SDS011;24536;45.488;12.238;2023-06-26T08:15:21;4.47;;;3.58;;
38787;SDS011;24536;45.488;12.238;2023-06-26T08:17:47;4.20;;;3.08;;
38787;SDS011;24536;45.488;12.238;2023-06-26T08:20:12;4.90;;;3.92;;
38787;SDS011;24536;45.488;12.238;2023-06-26T08:22:38;5.28;;;3.40;;
38787;SDS011;24536;45.488;12.238;2023-06-26T08:25:04;3.78;;;3.38;;
38787;SDS011;24536;45.488;12.238;2023-06-26T08:27:31;5.32;;;3.63;;
38787;SDS011;24536;45.488;12.238;2023-06-26T08:29:57;4.22;;;3.47;;
38787;SDS011;24536;45.488;12.238;2023-06-26T08:32:23;5.20;;;3.00;;
38787;SDS011;24536;45.488;12.238;2023-06-26T08:34:50;2.95;;;2.65;;
38787;SDS011;24536;45.488;12.238;2023-06-26T08:37:15;5.03;;;3.03;;
38787;SDS011;24536;45.488;12.238;2023-06-26T08:39:41;2.95;;;2.65;;
38787;SDS011;24536;45.488;12.238;2023-06-26T08:42:07;6.55;;;2.55;;
38787;SDS011;24536;45.488;12.238;2023-06-26T08:44:33;5.57;;;3.58;;
38787;SDS011;24536;45.488;12.238;2023-06-26T08:47:01;4.80;;;3.17;;
38787;SDS011;24536;45.488;12.238;2023-06-26T08:52:19;4.82;;;2.78;;
38787;SDS011;24536;45.488;12.238;2023-06-26T08:54:51;3.35;;;2.83;;
38787;SDS011;24536;45.488;12.238;2023-06-26T08:57:21;7.15;;;3.50;;
38787;SDS011;24536;45.488;12.238;2023-06-26T08:59:48;6.22;;;3.35;;
38787;SDS011;24536;45.488;12.238;2023-06-26T09:02:14;4.35;;;3.28;;
38787;SDS011;24536;45.488;12.238;2023-06-26T09:04:40;6.50;;;3.35;;
38787;SDS011;24536;45.488;12.238;2023-06-26T09:07:06;4.03;;;3.33;;
38787;SDS011;24536;45.488;12.238;2023-06-26T09:09:33;8.85;;;3.55;;
38787;SDS011;24536;45.488;12.238;2023-06-26T09:11:58;3.97;;;3.20;;
38787;SDS011;24536;45.488;12.238;2023-06-26T09:14:26;3.72;;;3.38;;
38787;SDS011;24536;45.488;12.238;2023-06-26T09:16:52;4.15;;;3.00;;
38787;SDS011;24536;45.488;12.238;2023-06-26T09:19:18;3.50;;;3.20;;
38787;SDS011;24536;45.488;12.238;2023-06-26T09:21:44;6.35;;;2.90;;
38787;SDS011;24536;45.488;12.238;2023-06-26T09:24:09;3.83;;;3.35;;
38787;SDS011;24536;45.488;12.238;2023-06-26T09:26:36;4.70;;;3.45;;
38787;SDS011;24536;45.488;12.238;2023-06-26T09:29:03;6.00;;;3.40;;
38787;SDS011;24536;45.488;12.238;2023-06-26T09:31:30;7.43;;;3.63;;
38787;SDS011;24536;45.488;12.238;2023-06-26T09:33:59;4.75;;;3.47;;
38787;SDS011;24536;45.488;12.238;2023-06-26T09:36:26;6.20;;;3.53;;
38787;SDS011;24536;45.488;12.238;2023-06-26T09:38:54;5.32;;;3.65;;
38787;SDS011;24536;45.488;12.238;2023-06-26T09:41:19;4.60;;;3.08;;
38787;SDS011;24536;45.488;12.238;2023-06-26T09:43:49;5.88;;;3.53;;
38787;SDS011;24536;45.488;12.238;2023-06-26T09:46:16;4.53;;;2.92;;
38787;SDS011;24536;45.488;12.238;2023-06-26T09:48:48;3.70;;;3.30;;
38787;SDS011;24536;45.488;12.238;2023-06-26T09:51:16;5.75;;;3.67;;
38787;SDS011;24536;45.488;12.238;2023-06-26T09:53:42;3.85;;;2.97;;
38787;SDS011;24536;45.488;12.238;2023-06-26T09:56:14;7.25;;;3.85;;
38787;SDS011;24536;45.488;12.238;2023-06-26T09:58:44;4.30;;;3.55;;
38787;SDS011;24536;45.488;12.238;2023-06-26T10:01:10;6.72;;;3.45;;
38787;SDS011;24536;45.488;12.238;2023-06-26T10:03:36;4.32;;;2.83;;
38787;SDS011;24536;45.488;12.238;2023-06-26T10:06:02;3.58;;;2.88;;
38787;SDS011;24536;45.488;12.238;2023-06-26T10:08:29;3.83;;;3.42;;
38787;SDS011;24536;45.488;12.238;2023-06-26T10:10:56;7.53;;;3.83;;
38787;SDS011;24536;45.488;12.238;2023-06-26T10:13:28;3.80;;;3.20;;
38787;SDS011;24536;45.488;12.238;2023-06-26T10:16:00;6.32;;;3.60;;
38787;SDS011;24536;45.488;12.238;2023-06-26T10:18:26;4.30;;;2.90;;
38787;SDS011;24536;45.488;12.238;2023-06-26T10:20:55;4.65;;;3.75;;
38787;SDS011;24536;45.488;12.238;2023-06-26T10:23:22;3.67;;;3.30;;
38787;SDS011;24536;45.488;12.238;2023-06-26T10:25:51;3.83;;;3.22;;
38787;SDS011;24536;45.488;12.238;2023-06-26T10:28:17;4.13;;;3.30;;
38787;SDS011;24536;45.488;12.238;2023-06-26T10:30:44;3.70;;;3.33;;
38787;SDS011;24536;45.488;12.238;2023-06-26T10:33:13;3.70;;;3.03;;
38787;SDS011;24536;45.488;12.238;2023-06-26T10:35:45;5.97;;;3.30;;
38787;SDS011;24536;45.488;12.238;2023-06-26T10:38:11;4.93;;;3.42;;
38787;SDS011;24536;45.488;12.238;2023-06-26T10:40:43;7.63;;;3.42;;
38787;SDS011;24536;45.488;12.238;2023-06-26T10:43:15;6.90;;;3.70;;
38787;SDS011;24536;45.488;12.238;2023-06-26T10:45:49;6.20;;;3.63;;
38787;SDS011;24536;45.488;12.238;2023-06-26T10:48:20;4.95;;;3.25;;
38787;SDS011;24536;45.488;12.238;2023-06-26T10:50:47;3.80;;;3.17;;
38787;SDS011;24536;45.488;12.238;2023-06-26T10:53:24;5.18;;;4.00;;
38787;SDS011;24536;45.488;12.238;2023-06-26T10:56:04;3.83;;;3.30;;
38787;SDS011;24536;45.488;12.238;2023-06-26T10:58:31;3.40;;;3.10;;
38787;SDS011;24536;45.488;12.238;2023-06-26T11:03:36;4.13;;;3.55;;
38787;SDS011;24536;45.488;12.238;2023-06-26T11:06:28;4.18;;;3.42;;
38787;SDS011;24536;45.488;12.238;2023-06-26T11:08:59;4.55;;;3.58;;
38787;SDS011;24536;45.488;12.238;2023-06-26T11:14:16;4.85;;;3.67;;
38787;SDS011;24536;45.488;12.238;2023-06-26T11:19:12;4.93;;;3.60;;
38787;SDS011;24536;45.488;12.238;2023-06-26T11:21:39;4.40;;;3.67;;
38787;SDS011;24536;45.488;12.238;2023-06-26T11:24:08;4.90;;;3.65;;
38787;SDS011;24536;45.488;12.238;2023-06-26T11:26:42;5.07;;;3.58;;
38787;SDS011;24536;45.488;12.238;2023-06-26T11:29:09;5.53;;;4.00;;
38787;SDS011;24536;45.488;12.238;2023-06-26T11:31:39;4.38;;;3.88;;
38787;SDS011;24536;45.488;12.238;2023-06-26T11:34:07;6.13;;;3.78;;
38787;SDS011;24536;45.488;12.238;2023-06-26T11:36:38;7.85;;;3.60;;
38787;SDS011;24536;45.488;12.238;2023-06-26T11:39:06;5.35;;;4.00;;
38787;SDS011;24536;45.488;12.238;2023-06-26T11:41:33;4.35;;;3.50;;
38787;SDS011;24536;45.488;12.238;2023-06-26T11:44:00;5.13;;;4.10;;
38787;SDS011;24536;45.488;12.238;2023-06-26T11:46:27;7.95;;;4.68;;
38787;SDS011;24536;45.488;12.238;2023-06-26T11:48:53;5.82;;;4.30;;
38787;SDS011;24536;45.488;12.238;2023-06-26T11:51:19;5.97;;;3.97;;
38787;SDS011;24536;45.488;12.238;2023-06-26T11:53:45;6.80;;;4.47;;
38787;SDS011;24536;45.488;12.238;2023-06-26T11:56:13;5.53;;;3.50;;
38787;SDS011;24536;45.488;12.238;2023-06-26T11:58:56;9.15;;;4.80;;
38787;SDS011;24536;45.488;12.238;2023-06-26T12:01:22;6.43;;;4.35;;
38787;SDS011;24536;45.488;12.238;2023-06-26T12:03:49;5.95;;;4.55;;
38787;SDS011;24536;45.488;12.238;2023-06-26T12:06:15;4.35;;;3.88;;
38787;SDS011;24536;45.488;12.238;2023-06-26T12:08:41;8.85;;;4.15;;
38787;SDS011;24536;45.488;12.238;2023-06-26T12:11:07;15.40;;;4.47;;
38787;SDS011;24536;45.488;12.238;2023-06-26T12:13:34;5.55;;;3.75;;
38787;SDS011;24536;45.488;12.238;2023-06-26T12:16:00;7.20;;;3.67;;
38787;SDS011;24536;45.488;12.238;2023-06-26T12:18:25;4.10;;;3.70;;
38787;SDS011;24536;45.488;12.238;2023-06-26T12:20:58;7.65;;;4.63;;
38787;SDS011;24536;45.488;12.238;2023-06-26T12:23:24;10.82;;;4.45;;
38787;SDS011;24536;45.488;12.238;2023-06-26T12:25:58;12.00;;;4.30;;
38787;SDS011;24536;45.488;12.238;2023-06-26T12:28:24;13.07;;;4.93;;
38787;SDS011;24536;45.488;12.238;2023-06-26T12:33:42;14.65;;;4.57;;
38787;SDS011;24536;45.488;12.238;2023-06-26T12:36:12;12.40;;;4.47;;
38787;SDS011;24536;45.488;12.238;2023-06-26T12:38:39;12.60;;;4.43;;
38787;SDS011;24536;45.488;12.238;2023-06-26T12:41:12;5.40;;;3.90;;
38787;SDS011;24536;45.488;12.238;2023-06-26T12:43:39;4.60;;;3.85;;
38787;SDS011;24536;45.488;12.238;2023-06-26T12:46:05;6.20;;;4.05;;
38787;SDS011;24536;45.488;12.238;2023-06-26T12:48:43;7.00;;;4.32;;
38787;SDS011;24536;45.488;12.238;2023-06-26T12:51:16;6.47;;;3.85;;
38787;SDS011;24536;45.488;12.238;2023-06-26T12:53:43;9.73;;;4.30;;
38787;SDS011;24536;45.488;12.238;2023-06-26T12:56:09;6.07;;;4.30;;
38787;SDS011;24536;45.488;12.238;2023-06-26T12:58:35;9.88;;;4.18;;
38787;SDS011;24536;45.488;12.238;2023-06-26T13:01:03;4.38;;;3.83;;
38787;SDS011;24536;45.488;12.238;2023-06-26T13:03:31;5.10;;;4.22;;
38787;SDS011;24536;45.488;12.238;2023-06-26T13:05:56;4.38;;;3.95;;
38787;SDS011;24536;45.488;12.238;2023-06-26T13:08:22;5.63;;;3.92;;
38787;SDS011;24536;45.488;12.238;2023-06-26T13:10:48;8.60;;;4.45;;
38787;SDS011;24536;45.488;12.238;2023-06-26T13:13:14;4.75;;;4.15;;
38787;SDS011;24536;45.488;12.238;2023-06-26T13:15:40;7.28;;;3.63;;
38787;SDS011;24536;45.488;12.238;2023-06-26T13:18:05;4.88;;;3.80;;
38787;SDS011;24536;45.488;12.238;2023-06-26T13:20:31;4.18;;;3.50;;
38787;SDS011;24536;45.488;12.238;2023-06-26T13:22:57;6.78;;;4.38;;
38787;SDS011;24536;45.488;12.238;2023-06-26T13:25:22;4.47;;;3.78;;
38787;SDS011;24536;45.488;12.238;2023-06-26T13:27:48;3.85;;;3.47;;
38787;SDS011;24536;45.488;12.238;2023-06-26T13:30:14;4.13;;;3.65;;
38787;SDS011;24536;45.488;12.238;2023-06-26T13:32:41;6.85;;;3.83;;
38787;SDS011;24536;45.488;12.238;2023-06-26T13:35:07;6.10;;;3.88;;
38787;SDS011;24536;45.488;12.238;2023-06-26T13:37:34;4.00;;;3.47;;
38787;SDS011;24536;45.488;12.238;2023-06-26T13:40:00;5.97;;;3.58;;
38787;SDS011;24536;45.488;12.238;2023-06-26T13:42:27;4.80;;;3.65;;
38787;SDS011;24536;45.488;12.238;2023-06-26T13:44:53;4.60;;;3.70;;
38787;SDS011;24536;45.488;12.238;2023-06-26T13:47:19;4.95;;;4.05;;
38787;SDS011;24536;45.488;12.238;2023-06-26T13:49:44;8.50;;;4.07;;
38787;SDS011;24536;45.488;12.238;2023-06-26T13:52:10;4.78;;;3.88;;
38787;SDS011;24536;45.488;12.238;2023-06-26T13:54:36;7.85;;;4.18;;
38787;SDS011;24536;45.488;12.238;2023-06-26T13:57:05;6.00;;;3.23;;
38787;SDS011;24536;45.488;12.238;2023-06-26T13:59:32;8.27;;;3.70;;
38787;SDS011;24536;45.488;12.238;2023-06-26T14:01:58;11.05;;;3.75;;
38787;SDS011;24536;45.488;12.238;2023-06-26T14:04:24;7.03;;;3.40;;
38787;SDS011;24536;45.488;12.238;2023-06-26T14:06:50;7.45;;;3.65;;
38787;SDS011;24536;45.488;12.238;2023-06-26T14:09:16;6.63;;;4.00;;
38787;SDS011;24536;45.488;12.238;2023-06-26T14:11:43;13.15;;;4.18;;
38787;SDS011;24536;45.488;12.238;2023-06-26T14:14:09;5.75;;;3.63;;
38787;SDS011;24536;45.488;12.238;2023-06-26T14:16:34;6.60;;;4.05;;
38787;SDS011;24536;45.488;12.238;2023-06-26T14:19:00;10.32;;;3.85;;
38787;SDS011;24536;45.488;12.238;2023-06-26T14:21:27;5.50;;;4.28;;
38787;SDS011;24536;45.488;12.238;2023-06-26T14:23:53;3.88;;;3.47;;
38787;SDS011;24536;45.488;12.238;2023-06-26T14:26:19;6.10;;;3.80;;
38787;SDS011;24536;45.488;12.238;2023-06-26T14:28:46;4.05;;;3.60;;
38787;SDS011;24536;45.488;12.238;2023-06-26T14:31:12;4.43;;;3.97;;
38787;SDS011;24536;45.488;12.238;2023-06-26T14:33:38;7.32;;;3.88;;
38787;SDS011;24536;45.488;12.238;2023-06-26T14:36:04;10.30;;;4.05;;
38787;SDS011;24536;45.488;12.238;2023-06-26T14:38:29;4.25;;;3.80;;
38787;SDS011;24536;45.488;12.238;2023-06-26T14:40:55;5.88;;;3.65;;
38787;SDS011;24536;45.488;12.238;2023-06-26T14:43:21;8.75;;;3.75;;
38787;SDS011;24536;45.488;12.238;2023-06-26T14:45:47;8.48;;;4.05;;
38787;SDS011;24536;45.488;12.238;2023-06-26T14:48:12;4.30;;;3.67;;
38787;SDS011;24536;45.488;12.238;2023-06-26T14:50:38;5.05;;;3.95;;
38787;SDS011;24536;45.488;12.238;2023-06-26T14:53:04;3.90;;;3.40;;
38787;SDS011;24536;45.488;12.238;2023-06-26T14:55:30;5.20;;;4.40;;